Overview Statistics Trail Chart Weather Telemetry Raw packets
 

This is the latest recevied weather packets stored in our database for station/object N5CSU. If no packets are shown the sender has not sent any weather packets the latest 10 day(s).

<< 81 82 83 84 85 86 87 >>
Time Temp. Humidity Pressure Rain* Wind** Luminosity Snow
1788027366 37.22° C 40% 1017.2 hPa 0 mm - 253 W/m² -
1788027061 37.22° C 41% 1017.4 hPa 0 mm - 521 W/m² -
1788026761 37.22° C 41% 1017.4 hPa 0 mm - 318 W/m² -
1788026457 37.22° C 42% 1017.4 hPa 0 mm - 474 W/m² -
1788026156 36.67° C 41% 1017.5 hPa 0 mm - 153 W/m² -
1788025855 36.11° C 42% 1017.6 hPa 0 mm - 296 W/m² -
1788025551 36.11° C 42% 1017.7 hPa 0 mm - 418 W/m² -
1788025245 36.67° C 41% 1017.6 hPa 0 mm - 216 W/m² -
1788024940 36.67° C 42% 1017.6 hPa 0 mm - 25 W/m² -
1788024636 36.11° C 42% 1017.7 hPa 0 mm - 33 W/m² -
1788024331 36.11° C 42% 1017.9 hPa 0 mm - 114 W/m² -
1788024027 36.11° C 41% 1017.8 hPa 0 mm - 52 W/m² -
1788023727 36.11° C 43% 1017.9 hPa 0 mm - 124 W/m² -
1788023422 36.11° C 43% 1018 hPa 0 mm - 58 W/m² -
1788023121 35.56° C 44% 1018.2 hPa 0 mm - 314 W/m² -
1788022821 36.11° C 44% 1018.1 hPa 0 mm - 293 W/m² -
1788022518 35.56° C 44% 1018 hPa 0 mm - 274 W/m² -
1788022214 35.56° C 45% 1018.2 hPa 0 mm - 437 W/m² -
1788021912 36.11° C 44% 1018.2 hPa 0 mm - 439 W/m² -
1788021607 35.56° C 45% 1018.1 hPa 0 mm - 334 W/m² -
1788021305 35.56° C 45% 1018.3 hPa 0 mm - 435 W/m² -
1788021000 35° C 46% 1018.3 hPa 0 mm - 142 W/m² -
1788020696 35.56° C 46% 1018 hPa 0 mm - 161 W/m² -
1788020395 35° C 48% 1018.3 hPa 0 mm - 448 W/m² -
1788020093 34.44° C 47% 1018.3 hPa 0 mm - 439 W/m² -

* Rain latest hour (hover to see other rain measurements)
** Current wind speed in m/s (hover to see current wind gust speed)